createdAt,value
2022-09-24T00:00:54.496Z,99870.34
2022-09-24T00:03:45.320Z,99873.22
2022-09-24T00:06:36.952Z,99860.44
2022-09-24T00:09:26.773Z,99857.53
2022-09-24T00:12:15.370Z,99854.84
2022-09-24T00:15:03.824Z,99851.91
2022-09-24T00:17:52.492Z,99837.19
2022-09-24T00:20:41.010Z,99842.31
2022-09-24T00:23:29.435Z,99820.94
2022-09-24T00:26:37.322Z,99839.75
2022-09-24T00:29:26.332Z,99828.28
2022-09-24T00:32:14.751Z,99825.81
2022-09-24T00:35:03.176Z,99829.75
2022-09-24T00:37:51.627Z,99828.69
2022-09-24T00:40:40.411Z,99831.38
2022-09-24T00:43:33.989Z,99823.13
2022-09-24T00:46:25.805Z,99824.81
2022-09-24T00:49:16.417Z,99805.06
2022-09-24T00:52:04.836Z,99807.09
2022-09-24T00:54:53.685Z,99806.69
2022-09-24T00:57:43.237Z,99808.81
2022-09-24T01:00:33.224Z,99800.88
2022-09-24T01:03:24.625Z,99814.03
2022-09-24T01:06:13.220Z,99811.56
2022-09-24T01:09:01.976Z,99802.97
2022-09-24T01:11:56.168Z,99800.34
2022-09-24T01:14:56.229Z,99797.66
2022-09-24T01:17:50.476Z,99766.66
2022-09-24T01:20:54.285Z,99788.00
2022-09-24T01:24:01.898Z,99786.38
2022-09-24T01:26:58.115Z,99782.84
2022-09-24T01:29:58.750Z,99795.94
2022-09-24T01:32:50.097Z,99778.16
2022-09-24T01:35:39.773Z,99791.59
2022-09-24T01:38:31.298Z,99776.94
2022-09-24T01:41:20.398Z,99772.03
2022-09-24T01:44:09.285Z,99773.38
2022-09-24T01:46:59.514Z,99766.41
2022-09-24T01:49:48.045Z,99745.66
2022-09-24T01:52:42.182Z,99763.97
2022-09-24T01:55:35.045Z,99754.91
2022-09-24T01:58:27.864Z,99751.19
2022-09-24T02:01:20.313Z,99710.16
2022-09-24T02:04:14.861Z,99744.09
2022-09-24T02:07:06.128Z,99754.03
2022-09-24T02:09:54.544Z,99624.84
2022-09-24T02:12:44.031Z,99753.16
2022-09-24T02:15:34.119Z,99694.78
2022-09-24T02:18:27.202Z,99755.66
2022-09-24T02:21:19.869Z,99745.56
2022-09-24T02:24:10.889Z,99743.09
2022-09-24T02:27:00.028Z,99747.03
2022-09-24T02:29:48.643Z,99741.44
2022-09-24T02:32:38.008Z,99742.66
2022-09-24T02:35:25.472Z,99738.13
2022-09-24T02:38:18.673Z,99740.06
2022-09-24T02:41:08.086Z,99738.44
2022-09-24T02:43:56.541Z,99741.47
2022-09-24T02:46:45.247Z,99757.16
2022-09-24T02:49:34.098Z,99747.03
2022-09-24T02:52:22.731Z,99750.31
2022-09-24T02:55:13.055Z,99750.75
2022-09-24T02:58:01.481Z,99754.69
2022-09-24T03:00:49.961Z,99742.09
2022-09-24T03:03:38.403Z,99743.72
2022-09-24T03:06:27.318Z,99746.81
2022-09-24T03:09:15.885Z,99734.41
2022-09-24T03:12:05.757Z,99737.69
2022-09-24T03:14:54.155Z,99726.09
2022-09-24T03:17:42.588Z,99725.88
2022-09-24T03:20:31.252Z,99726.66
2022-09-24T03:23:19.895Z,99722.63
2022-09-24T03:26:08.746Z,99722.66
2022-09-24T03:28:58.557Z,99725.31
2022-09-24T03:31:46.059Z,99715.06
2022-09-24T03:34:34.513Z,99732.31
2022-09-24T03:37:22.929Z,99733.38
2022-09-24T03:40:11.581Z,99736.66
2022-09-24T03:43:00.051Z,99731.50
2022-09-24T03:45:50.100Z,99730.81
2022-09-24T03:48:40.135Z,99737.19
2022-09-24T03:51:28.641Z,99738.03
2022-09-24T03:54:17.460Z,99737.38
2022-09-24T03:57:06.088Z,99736.19
2022-09-24T03:59:55.173Z,99726.66
2022-09-24T04:02:45.345Z,99723.41
2022-09-24T04:05:33.859Z,99717.84
2022-09-24T04:08:23.509Z,99706.56
2022-09-24T04:11:11.994Z,99727.19
2022-09-24T04:14:00.402Z,99711.31
2022-09-24T04:16:48.831Z,99702.69
2022-09-24T04:19:39.689Z,99712.69
2022-09-24T04:22:29.037Z,99712.78
2022-09-24T04:25:18.001Z,99707.19
2022-09-24T04:28:07.788Z,99614.91
2022-09-24T04:30:56.209Z,99714.94
2022-09-24T04:33:44.644Z,99718.28
2022-09-24T04:36:34.427Z,99716.66
2022-09-24T04:39:26.641Z,99714.81
2022-09-24T04:42:18.105Z,99720.75
2022-09-24T04:45:07.864Z,99714.94
2022-09-24T04:47:57.708Z,99713.53
2022-09-24T04:50:46.669Z,99712.22
2022-09-24T04:53:37.309Z,99715.34
2022-09-24T04:56:25.851Z,99714.94
2022-09-24T04:59:14.291Z,99718.69
2022-09-24T05:02:08.658Z,99718.28
2022-09-24T05:04:57.873Z,99716.00
2022-09-24T05:07:46.433Z,99721.97
2022-09-24T05:10:36.245Z,99723.19
2022-09-24T05:13:24.796Z,99722.97
2022-09-24T05:16:13.338Z,99700.09
2022-09-24T05:19:01.960Z,99717.41
2022-09-24T05:21:50.609Z,99696.88
2022-09-24T05:24:39.026Z,99716.00
2022-09-24T05:27:27.814Z,99710.63
2022-09-24T05:30:16.945Z,99688.66
2022-09-24T05:33:05.385Z,99616.97
2022-09-24T05:35:54.932Z,99724.50
2022-09-24T05:38:43.369Z,99724.88
2022-09-24T05:41:31.823Z,99719.13
2022-09-24T05:44:21.716Z,99733.72
2022-09-24T05:47:10.176Z,99720.31
2022-09-24T05:49:58.615Z,99733.06
2022-09-24T05:52:47.066Z,99736.19
2022-09-24T05:55:36.028Z,99729.34
2022-09-24T05:58:24.835Z,99726.66
2022-09-24T06:01:14.630Z,99738.03
2022-09-24T06:04:08.434Z,99701.84
2022-09-24T06:06:57.384Z,99732.50
2022-09-24T06:09:46.020Z,99743.56
2022-09-24T06:12:37.149Z,99743.34
2022-09-24T06:15:26.487Z,99735.13
2022-09-24T06:18:16.393Z,99738.00
2022-09-24T06:21:07.660Z,99732.41
2022-09-24T06:23:56.118Z,99738.34
2022-09-24T06:26:44.563Z,99737.13
2022-09-24T06:29:33.153Z,99740.69
2022-09-24T06:32:21.633Z,99741.78
2022-09-24T06:35:11.523Z,99756.19
2022-09-24T06:37:59.948Z,99756.81
2022-09-24T06:40:49.322Z,99749.59
2022-09-24T06:43:38.020Z,99749.28
2022-09-24T06:46:28.358Z,99607.69
2022-09-24T06:49:16.857Z,99766.13
2022-09-24T06:52:06.674Z,99760.66
2022-09-24T06:54:55.938Z,99762.91
2022-09-24T06:57:44.436Z,99769.63
2022-09-24T07:00:33.175Z,99735.00
2022-09-24T07:03:22.327Z,99732.00
2022-09-24T07:06:10.798Z,99720.81
2022-09-24T07:09:01.170Z,99753.22
2022-09-24T07:11:52.903Z,99748.88
2022-09-24T07:14:41.405Z,99741.59
2022-09-24T07:17:34.036Z,99770.56
2022-09-24T07:20:22.634Z,99774.59
2022-09-24T07:23:12.799Z,99788.78
2022-09-24T07:26:02.634Z,99746.47
2022-09-24T07:28:51.089Z,99777.13
2022-09-24T07:31:39.531Z,99772.25
2022-09-24T07:34:28.084Z,99787.16
2022-09-24T07:37:16.545Z,99796.69
2022-09-24T07:40:05.348Z,99789.38
2022-09-24T07:42:55.864Z,99785.84
2022-09-24T07:45:45.218Z,99786.34
2022-09-24T07:48:33.634Z,99791.66
2022-09-24T07:51:22.117Z,99798.44
2022-09-24T07:54:16.348Z,99803.16
2022-09-24T07:57:11.996Z,99810.09
2022-09-24T08:00:01.895Z,99800.72
2022-09-24T08:02:51.869Z,99802.72
2022-09-24T08:05:45.095Z,99798.16
2022-09-24T08:08:33.662Z,99786.47
2022-09-24T08:11:22.306Z,99802.03
2022-09-24T08:14:10.833Z,99805.56
2022-09-24T08:17:01.543Z,99795.03
2022-09-24T08:19:51.875Z,99780.50
2022-09-24T08:22:40.777Z,99795.97
2022-09-24T08:25:29.286Z,99785.81
2022-09-24T08:28:19.662Z,99796.59
2022-09-24T08:31:08.987Z,99797.44
2022-09-24T08:33:58.934Z,99793.69
2022-09-24T08:36:47.390Z,99768.56
2022-09-24T08:39:35.868Z,99790.06
2022-09-24T08:42:31.193Z,99792.44
2022-09-24T08:45:37.351Z,99796.84
2022-09-24T08:48:29.603Z,99805.56
2022-09-24T08:51:20.555Z,99773.78
2022-09-24T08:54:12.313Z,99788.91
2022-09-24T08:57:01.597Z,99800.75
2022-09-24T08:59:51.966Z,99804.38
2022-09-24T09:02:44.983Z,99804.47
2022-09-24T09:05:49.593Z,99810.25
2022-09-24T09:09:05.713Z,99809.16
2022-09-24T09:12:00.636Z,99817.16
2022-09-24T09:14:52.512Z,99820.28
2022-09-24T09:17:45.592Z,99826.38
2022-09-24T09:20:37.136Z,99826.97
2022-09-24T09:23:31.251Z,99806.31
2022-09-24T09:26:21.423Z,99826.97
2022-09-24T09:29:11.148Z,99805.53
2022-09-24T09:32:05.499Z,99820.25
2022-09-24T09:34:59.929Z,99813.06
2022-09-24T09:37:52.872Z,99825.13
2022-09-24T09:40:44.666Z,99816.06
2022-09-24T09:43:35.516Z,99819.19
2022-09-24T09:46:27.105Z,99698.63
2022-09-24T09:49:15.659Z,99819.38
2022-09-24T09:52:07.097Z,99828.16
2022-09-24T09:54:55.904Z,99828.41
2022-09-24T09:57:44.566Z,99832.59
2022-09-24T10:00:36.545Z,99828.09
2022-09-24T10:03:26.842Z,99812.53
2022-09-24T10:06:23.841Z,99812.44
2022-09-24T10:09:15.010Z,99709.66
2022-09-24T10:12:11.175Z,99808.50
2022-09-24T10:15:01.487Z,99801.97
2022-09-24T10:17:53.520Z,99805.47
2022-09-24T10:20:48.114Z,99804.44
2022-09-24T10:23:38.595Z,99812.81
2022-09-24T10:26:38.674Z,99811.06
2022-09-24T10:29:50.643Z,99812.47
2022-09-24T10:32:40.789Z,99816.22
2022-09-24T10:35:33.621Z,99816.88
2022-09-24T10:38:24.981Z,99822.94
2022-09-24T10:41:20.955Z,99794.66
2022-09-24T10:44:12.120Z,99812.22
2022-09-24T10:47:09.005Z,99789.44
2022-09-24T10:50:12.236Z,99804.66
2022-09-24T10:53:08.805Z,99808.59
2022-09-24T10:56:02.009Z,99804.84
2022-09-24T10:59:08.748Z,99799.09
2022-09-24T11:02:08.656Z,99801.59
2022-09-24T11:04:57.944Z,99803.56
2022-09-24T11:07:55.570Z,99795.19
2022-09-24T11:11:02.602Z,99799.22
2022-09-24T11:13:58.555Z,99796.06
2022-09-24T11:17:04.265Z,99795.31
2022-09-24T11:20:04.391Z,99784.13
2022-09-24T11:23:22.985Z,99786.31
2022-09-24T11:26:18.708Z,99783.28
2022-09-24T11:29:37.357Z,99780.19
2022-09-24T11:32:32.219Z,99776.06
2022-09-24T11:35:59.545Z,99773.03
2022-09-24T11:39:01.764Z,99768.69
2022-09-24T11:41:58.703Z,99775.69
2022-09-24T11:45:12.917Z,99765.16
2022-09-24T11:48:14.178Z,99767.25
2022-09-24T11:51:12.124Z,99766.28
2022-09-24T11:54:07.756Z,99737.41
2022-09-24T11:57:02.012Z,99745.88
2022-09-24T11:59:56.824Z,99755.69
2022-09-24T12:02:49.794Z,99745.38
2022-09-24T12:05:40.699Z,99755.44
2022-09-24T12:08:32.534Z,99750.31
2022-09-24T12:11:25.215Z,99748.53
2022-09-24T12:14:19.650Z,99728.06
2022-09-24T12:17:12.074Z,99754.34
2022-09-24T12:20:02.609Z,99752.22
2022-09-24T12:23:00.097Z,99746.59
2022-09-24T12:25:49.437Z,99705.16
2022-09-24T12:28:59.038Z,99743.03
2022-09-24T12:32:13.284Z,99737.34
2022-09-24T12:35:08.321Z,99728.06
2022-09-24T12:38:01.326Z,99735.09
2022-09-24T12:41:05.883Z,99737.03
2022-09-24T12:43:59.124Z,99732.72
2022-09-24T12:46:52.952Z,99729.19
2022-09-24T12:49:41.523Z,99721.31
2022-09-24T12:52:35.363Z,99726.69
2022-09-24T12:55:25.398Z,99725.44
2022-09-24T12:58:28.626Z,99722.94
2022-09-24T13:01:30.321Z,99716.75
2022-09-24T13:04:28.967Z,99714.78
2022-09-24T13:07:35.571Z,99711.63
2022-09-24T13:10:26.668Z,99714.38
2022-09-24T13:13:25.618Z,99719.81
2022-09-24T13:16:19.388Z,99717.09
2022-09-24T13:19:25.225Z,99712.50
2022-09-24T13:22:27.745Z,99707.91
2022-09-24T13:25:23.661Z,99696.88
2022-09-24T13:28:22.576Z,99714.66
2022-09-24T13:31:15.754Z,99706.84
2022-09-24T13:34:13.898Z,99697.91
2022-09-24T13:37:04.745Z,99708.25
2022-09-24T13:39:57.846Z,99706.41
2022-09-24T13:42:48.839Z,99708.59
2022-09-24T13:45:41.558Z,99705.59
2022-09-24T13:48:34.589Z,99708.78
2022-09-24T13:51:26.416Z,99701.09
2022-09-24T13:54:21.936Z,99706.28
2022-09-24T13:57:13.969Z,99701.19
2022-09-24T14:00:16.208Z,99688.47
2022-09-24T14:03:17.167Z,99694.72
2022-09-24T14:06:11.992Z,99688.94
2022-09-24T14:09:01.019Z,99687.53
2022-09-24T14:11:50.404Z,99686.44
2022-09-24T14:14:44.584Z,99687.16
2022-09-24T14:17:33.051Z,99671.09
2022-09-24T14:20:22.184Z,99692.88
2022-09-24T14:23:17.143Z,99686.41
2022-09-24T14:26:06.287Z,99684.22
2022-09-24T14:28:54.958Z,99687.50
2022-09-24T14:31:46.243Z,99689.09
2022-09-24T14:34:37.739Z,99687.16
2022-09-24T14:37:28.800Z,99690.97
2022-09-24T14:40:18.399Z,99684.41
2022-09-24T14:43:06.891Z,99670.25
2022-09-24T14:46:03.194Z,99681.97
2022-09-24T14:48:53.249Z,99675.47
2022-09-24T14:51:51.913Z,99679.81
2022-09-24T14:54:41.625Z,99664.63
2022-09-24T14:57:37.065Z,99671.94
2022-09-24T15:00:27.585Z,99646.91
2022-09-24T15:03:17.667Z,99674.66
2022-09-24T15:06:15.378Z,99669.72
2022-09-24T15:09:05.562Z,99664.78
2022-09-24T15:11:55.323Z,99660.78
2022-09-24T15:14:54.956Z,99644.69
2022-09-24T15:17:45.394Z,99635.94
2022-09-24T15:20:35.464Z,99658.00
2022-09-24T15:23:25.395Z,99652.84
2022-09-24T15:26:13.864Z,99659.63
2022-09-24T15:29:02.810Z,99637.81
2022-09-24T15:31:51.338Z,99653.63
2022-09-24T15:34:39.793Z,99660.09
2022-09-24T15:37:29.657Z,99645.44
2022-09-24T15:40:22.810Z,99654.94
2022-09-24T15:43:19.710Z,99660.31
2022-09-24T15:46:08.193Z,99654.63
2022-09-24T15:48:56.759Z,99652.97
2022-09-24T15:51:45.181Z,99648.06
2022-09-24T15:54:33.914Z,99647.53
2022-09-24T15:57:23.919Z,99629.25
2022-09-24T16:00:17.450Z,99656.19
2022-09-24T16:03:06.070Z,99627.34
2022-09-24T16:05:55.568Z,99650.19
2022-09-24T16:08:43.991Z,99632.47
2022-09-24T16:11:32.728Z,99642.34
2022-09-24T16:14:22.551Z,99642.06
2022-09-24T16:17:11.168Z,99651.81
2022-09-24T16:19:59.618Z,99646.09
2022-09-24T16:22:48.040Z,99653.97
2022-09-24T16:25:36.561Z,99650.72
2022-09-24T16:28:25.594Z,99654.75
2022-09-24T16:31:15.517Z,99633.81
2022-09-24T16:34:04.305Z,99647.66
2022-09-24T16:36:52.809Z,99651.50
2022-09-24T16:39:41.451Z,99642.75
2022-09-24T16:42:29.924Z,99659.03
2022-09-24T16:45:19.595Z,99656.56
2022-09-24T16:48:09.417Z,99644.19
2022-09-24T16:51:03.878Z,99663.56
2022-09-24T16:53:55.341Z,99663.22
2022-09-24T16:56:43.864Z,99669.22
2022-09-24T16:59:32.354Z,99633.19
2022-09-24T17:02:20.871Z,99673.72
2022-09-24T17:05:10.953Z,99667.13
2022-09-24T17:07:59.416Z,99679.31
2022-09-24T17:10:51.615Z,99677.63
2022-09-24T17:13:40.963Z,99679.44
2022-09-24T17:16:30.559Z,99683.75
2022-09-24T17:19:19.105Z,99669.50
2022-09-24T17:22:08.878Z,99676.56
2022-09-24T17:24:57.308Z,99683.56
2022-09-24T17:27:45.897Z,99680.25
2022-09-24T17:30:34.362Z,99661.41
2022-09-24T17:33:42.493Z,99688.56
2022-09-24T17:36:32.396Z,99692.88
2022-09-24T17:39:22.269Z,99697.41
2022-09-24T17:42:10.724Z,99702.50
2022-09-24T17:44:59.156Z,99706.03
2022-09-24T17:48:00.539Z,99707.19
2022-09-24T17:50:54.454Z,99704.13
2022-09-24T17:53:43.269Z,99589.28
2022-09-24T17:56:34.172Z,99702.03
2022-09-24T17:59:26.675Z,99709.81
2022-09-24T18:02:15.557Z,99703.78
2022-09-24T18:05:04.547Z,99709.19
2022-09-24T18:07:53.871Z,99682.72
2022-09-24T18:10:42.342Z,99715.88
2022-09-24T18:13:34.974Z,99714.81
2022-09-24T18:16:25.328Z,99726.06
2022-09-24T18:19:16.828Z,99732.31
2022-09-24T18:22:06.630Z,99739.97
2022-09-24T18:24:56.166Z,99729.53
2022-09-24T18:27:46.404Z,99737.47
2022-09-24T18:30:36.227Z,99717.31
2022-09-24T18:33:24.987Z,99733.31
2022-09-24T18:36:15.650Z,99743.00
2022-09-24T18:39:05.423Z,99714.47
2022-09-24T18:41:54.108Z,99742.88
2022-09-24T18:44:44.166Z,99756.41
2022-09-24T18:47:38.220Z,99768.84
2022-09-24T18:50:28.385Z,99700.69
2022-09-24T18:53:16.867Z,99771.50
2022-09-24T18:56:06.656Z,99776.56
2022-09-24T18:58:58.529Z,99782.56
2022-09-24T19:01:48.724Z,99782.06
2022-09-24T19:04:38.745Z,99780.81
2022-09-24T19:07:27.215Z,99785.75
2022-09-24T19:10:15.862Z,99784.00
2022-09-24T19:13:06.326Z,99783.78
2022-09-24T19:15:54.942Z,99782.16
2022-09-24T19:18:43.637Z,99767.47
2022-09-24T19:21:33.529Z,99757.31
2022-09-24T19:24:22.163Z,99766.56
2022-09-24T19:27:10.701Z,99761.50
2022-09-24T19:29:59.284Z,99761.50
2022-09-24T19:32:47.789Z,99774.66
2022-09-24T19:35:36.457Z,99735.81
2022-09-24T19:38:28.398Z,99772.44
2022-09-24T19:41:21.238Z,99777.84
2022-09-24T19:44:10.755Z,99769.75
2022-09-24T19:46:59.415Z,99771.91
2022-09-24T19:49:47.892Z,99761.72
2022-09-24T19:52:36.414Z,99770.72
2022-09-24T19:55:28.757Z,99770.16
2022-09-24T19:58:17.360Z,99773.34
2022-09-24T20:01:07.392Z,99760.56
2022-09-24T20:03:56.961Z,99765.50
2022-09-24T20:06:45.469Z,99762.69
2022-09-24T20:09:33.998Z,99763.72
2022-09-24T20:12:23.830Z,99768.09
2022-09-24T20:15:12.456Z,99769.84
2022-09-24T20:18:01.525Z,99774.09
2022-09-24T20:20:50.063Z,99769.19
2022-09-24T20:23:38.601Z,99774.16
2022-09-24T20:26:45.646Z,99774.47
2022-09-24T20:29:35.477Z,99774.25
2022-09-24T20:32:24.961Z,99776.66
2022-09-24T20:35:13.894Z,99782.75
2022-09-24T20:38:02.358Z,99774.97
2022-09-24T20:40:50.886Z,99782.88
2022-09-24T20:43:40.414Z,99781.38
2022-09-24T20:46:30.392Z,99766.72
2022-09-24T20:49:22.485Z,99785.22
2022-09-24T20:52:11.133Z,99782.78
2022-09-24T20:54:59.563Z,99780.84
2022-09-24T20:57:49.041Z,99784.25
2022-09-24T21:00:47.947Z,99783.44
2022-09-24T21:03:44.595Z,99788.25
2022-09-24T21:06:33.980Z,99775.47
2022-09-24T21:09:22.589Z,99782.06
2022-09-24T21:12:11.057Z,99760.47
2022-09-24T21:14:59.959Z,99775.47
2022-09-24T21:18:11.538Z,99768.09
2022-09-24T21:20:58.283Z,99779.00
2022-09-24T21:23:48.620Z,99766.56
2022-09-24T21:26:38.346Z,99775.16
2022-09-24T21:29:26.859Z,99775.38
2022-09-24T21:32:15.571Z,99772.94
2022-09-24T21:35:04.120Z,99759.31
2022-09-24T21:37:53.912Z,99765.31
2022-09-24T21:40:43.030Z,99766.56
2022-09-24T21:43:34.798Z,99769.28
2022-09-24T21:46:24.157Z,99761.94
2022-09-24T21:49:13.380Z,99768.00
2022-09-24T21:52:04.911Z,99760.38
2022-09-24T21:54:54.738Z,99767.09
2022-09-24T21:57:43.167Z,99726.78
2022-09-24T22:00:31.682Z,99755.72
2022-09-24T22:03:20.757Z,99767.78
2022-09-24T22:06:09.530Z,99771.06
2022-09-24T22:08:59.254Z,99760.66
2022-09-24T22:11:49.292Z,99766.84
2022-09-24T22:14:37.729Z,99755.03
2022-09-24T22:17:26.178Z,99768.16
2022-09-24T22:20:14.691Z,99764.28
2022-09-24T22:23:03.123Z,99764.53
2022-09-24T22:25:55.263Z,99764.41
2022-09-24T22:28:45.643Z,99769.56
2022-09-24T22:31:34.234Z,99773.56
2022-09-24T22:34:40.501Z,99766.78
2022-09-24T22:37:29.386Z,99768.28
2022-09-24T22:40:18.340Z,99770.19
2022-09-24T22:43:06.811Z,99760.66
2022-09-24T22:45:59.075Z,99751.28
2022-09-24T22:48:48.050Z,99767.13
2022-09-24T22:51:38.358Z,99762.16
2022-09-24T22:54:26.855Z,99767.00
2022-09-24T22:57:15.409Z,99761.59
2022-09-24T23:00:04.915Z,99756.91
2022-09-24T23:02:54.773Z,99759.00
2022-09-24T23:05:45.203Z,99752.69
2022-09-24T23:08:34.911Z,99767.19
2022-09-24T23:11:24.436Z,99755.47
2022-09-24T23:14:15.451Z,99755.25
2022-09-24T23:17:04.119Z,99757.84
2022-09-24T23:19:54.521Z,99751.63
2022-09-24T23:22:43.017Z,99757.38
2022-09-24T23:25:31.431Z,99764.41
2022-09-24T23:28:19.886Z,99768.41
2022-09-24T23:31:11.533Z,99756.78
2022-09-24T23:34:01.335Z,99764.63
2022-09-24T23:36:51.236Z,99753.03
2022-09-24T23:39:39.962Z,99751.50
2022-09-24T23:42:28.906Z,99760.88
2022-09-24T23:45:18.802Z,99760.06
2022-09-24T23:48:07.235Z,99761.72
2022-09-24T23:50:55.796Z,99754.09
2022-09-24T23:53:45.783Z,99759.72
2022-09-24T23:56:34.506Z,99713.16
2022-09-24T23:59:22.948Z,99726.66
